Glen Aubrey, New York
Current Conditions -  °F | °C
As of 8:53 AM on Saturday 20 Dec 2014 (Local Time) from KBGM Reporting Station
Haze Haze  
Wind Chill: 16°   Ceiling: 2100
Heat Index: 25°   Visibility: 6mi
Dew Point: 21°   Wind: 8mph
Humidity: 85%   Direction: 340°NNW
Pressure: 30.19"   Gusts: NA
Location:  42.26°N, 76.01°W
Report Text: KBGM 201353Z 34007KT 6SM BR OVC021 M04/M06 A3019 RMK AO2 SLP247 T10391061
Loading
Personal Weather Stations






























Interactive Weather Map New forecast layout! Learn more

10-Day Weather Forecast

Advertisements
Track Severe Weather on mobile